Time;durP1;ratioP1;P1;durP2;ratioP2;P2;SDS_P1;SDS_P2;PMS_P1;PMS_P2;Temp;Humidity;BMP_temperature;BMP_pressure;BME280_temperature;BME280_humidity;BME280_pressure;Samples;Min_cycle;Max_cycle;Signal;HPM_P1;HPM_P2
2021/06/22 00:01:57;;;;;;;14.43;5.70;;;;;;;19.55;85.72;98658.89;1649527;86;21583;-78
2021/06/22 00:04:24;;;;;;;8.00;4.53;;;;;;;19.53;86.02;98664.75;1644075;86;21198;-78
2021/06/22 00:06:50;;;;;;;10.28;4.62;;;;;;;19.52;86.50;98657.81;1647188;86;21080;-77
2021/06/22 00:09:17;;;;;;;12.80;4.70;;;;;;;19.47;87.78;98654.15;1644851;86;21132;-78
2021/06/22 00:11:43;;;;;;;14.18;5.20;;;;;;;19.47;86.67;98652.83;1641966;86;21083;-78
2021/06/22 00:14:11;;;;;;;13.18;4.87;;;;;;;19.46;86.87;98660.38;1646267;86;21055;-79
2021/06/22 00:16:38;;;;;;;10.03;4.87;;;;;;;19.47;87.55;98656.78;1630082;88;21027;-78
2021/06/22 00:19:04;;;;;;;11.20;4.67;;;;;;;19.46;86.85;98657.75;1630322;86;21126;-78
2021/06/22 00:21:31;;;;;;;10.53;4.20;;;;;;;19.44;87.09;98656.17;1636625;86;21047;-78
2021/06/22 00:23:57;;;;;;;11.35;4.97;;;;;;;19.44;86.44;98654.86;1648209;86;21047;-78
2021/06/22 00:26:24;;;;;;;7.33;4.33;;;;;;;19.37;88.27;98653.09;1624877;88;21036;-79
2021/06/22 00:28:50;;;;;;;7.33;4.67;;;;;;;19.35;86.94;98647.56;1668074;85;21086;-78
2021/06/22 00:31:18;;;;;;;15.05;6.12;;;;;;;19.34;87.11;98648.05;1675069;85;22390;-78
2021/06/22 00:33:46;;;;;;;14.00;5.47;;;;;;;19.33;87.33;98648.15;1671998;85;21504;-78
2021/06/22 00:36:12;;;;;;;10.40;5.08;;;;;;;19.34;87.01;98655.09;1671876;85;21110;-78
2021/06/22 00:38:39;;;;;;;11.57;5.10;;;;;;;19.32;86.96;98655.22;1653898;85;21051;-78
2021/06/22 00:41:07;;;;;;;10.85;4.75;;;;;;;19.29;87.35;98658.05;1638261;86;21502;-78
2021/06/22 00:43:41;;;;;;;10.50;4.85;;;;;;;19.27;87.30;98661.27;1651579;86;21055;-78
2021/06/22 00:46:08;;;;;;;13.95;5.55;;;;;;;19.26;87.50;98661.75;1629515;88;21099;-78
2021/06/22 00:48:34;;;;;;;8.35;4.62;;;;;;;19.27;87.50;98659.95;1683773;85;21534;-78
2021/06/22 00:51:02;;;;;;;13.38;4.80;;;;;;;19.26;87.09;98657.80;1636090;86;22125;-78
2021/06/22 00:53:28;;;;;;;10.18;5.33;;;;;;;19.24;86.87;98654.42;1648735;86;21103;-79
2021/06/22 00:55:55;;;;;;;9.20;4.78;;;;;;;;;;1632581;87;21063;-79
2021/06/22 00:58:24;;;;;;;12.82;5.08;;;;;;;19.20;86.82;98643.72;1643112;86;21043;-79
2021/06/22 01:00:52;;;;;;;7.85;4.55;;;;;;;19.18;87.09;98644.30;1640682;86;21012;-78
2021/06/22 01:03:19;;;;;;;12.90;4.67;;;;;;;19.16;86.65;98643.55;1636864;86;21060;-78
2021/06/22 01:05:46;;;;;;;10.65;5.33;;;;;;;19.10;88.87;98651.02;1636427;86;21074;-78
2021/06/22 01:08:13;;;;;;;19.40;5.80;;;;;;;19.04;87.73;98655.76;1657165;86;21043;-78
2021/06/22 01:10:41;;;;;;;16.25;5.40;;;;;;;19.00;88.53;98656.91;1630994;86;21039;-78
2021/06/22 01:13:08;;;;;;;11.85;5.35;;;;;;;18.99;87.62;98651.73;1640512;86;21003;-78
2021/06/22 01:15:35;;;;;;;13.38;5.47;;;;;;;18.93;86.74;98652.98;1645265;86;21107;-78
2021/06/22 01:18:06;;;;;;;9.90;5.33;;;;;;;18.85;88.91;98642.95;1652375;86;21071;-77
2021/06/22 01:20:36;;;;;;;9.40;5.50;;;;;;;18.83;87.76;98635.63;1628006;86;21087;-78
2021/06/22 01:23:07;;;;;;;11.30;5.40;;;;;;;18.82;87.44;98635.73;1688745;85;22017;-78
2021/06/22 01:25:37;;;;;;;17.45;4.87;;;;;;;18.74;87.48;98641.50;1613346;88;21542;-78
2021/06/22 01:28:04;;;;;;;10.72;5.25;;;;;;;18.68;87.60;98633.52;1686188;85;22059;-77
2021/06/22 01:30:33;;;;;;;10.95;5.95;;;;;;;18.65;87.36;98627.61;1639847;86;21054;-82
2021/06/22 01:33:03;;;;;;;15.55;5.95;;;;;;;18.63;87.60;98633.45;1651904;86;20995;-78
2021/06/22 01:35:32;;;;;;;10.98;5.47;;;;;;;18.56;88.12;98623.80;1632075;88;21146;-78
2021/06/22 01:38:04;;;;;;;12.28;5.62;;;;;;;18.52;88.06;98630.66;1630429;86;20980;-78
2021/06/22 01:40:34;;;;;;;;;;;;;;;18.47;88.06;98626.55;1639706;86;21103;-78
2021/06/22 01:43:01;;;;;;;11.08;6.22;;;;;;;18.46;88.34;98620.05;1687408;84;20119;-79
2021/06/22 01:45:28;;;;;;;13.62;6.55;;;;;;;18.44;88.42;98620.63;1594957;89;21076;-82
2021/06/22 01:47:54;;;;;;;13.18;6.70;;;;;;;18.40;87.99;98625.72;1650940;86;21004;-81
2021/06/22 01:50:22;;;;;;;12.33;6.53;;;;;;;18.38;88.25;98616.63;1638586;86;21441;-79
2021/06/22 01:52:50;;;;;;;13.45;6.15;;;;;;;18.39;88.13;98605.63;1639872;86;21480;-80
2021/06/22 01:55:37;;;;;;;14.60;6.80;;;;;;;18.39;88.65;98605.63;1638295;86;21064;-80
2021/06/22 01:58:13;;;;;;;16.05;7.10;;;;;;;18.41;89.93;98603.25;1628441;86;21495;-78
2021/06/22 02:01:00;;;;;;;14.07;6.78;;;;;;;18.41;90.83;98603.25;1638371;86;22219;-80
2021/06/22 02:03:31;;;;;;;13.05;6.45;;;;;;;18.38;91.70;98604.79;1654331;86;21016;-80
2021/06/22 02:05:58;;;;;;;13.32;6.00;;;;;;;18.37;91.55;98596.98;1640079;86;20952;-79
2021/06/22 02:08:26;;;;;;;11.90;5.72;;;;;;;18.34;90.49;98601.95;1655289;86;21039;-78
2021/06/22 02:10:53;;;;;;;12.58;6.60;;;;;;;18.36;90.64;98604.02;1634794;86;21099;-78
2021/06/22 02:13:36;;;;;;;14.05;6.67;;;;;;;18.35;91.05;98602.34;1635125;86;21035;-78
2021/06/22 02:16:05;;;;;;;11.93;6.03;;;;;;;18.35;89.77;98602.34;1628783;86;21072;-78
2021/06/22 02:18:32;;;;;;;17.50;6.53;;;;;;;18.32;91.54;98598.58;1654225;86;21063;-78
2021/06/22 02:21:00;;;;;;;11.75;6.40;;;;;;;18.32;90.85;98600.38;1647290;86;21679;-78
2021/06/22 02:23:28;;;;;;;15.30;6.37;;;;;;;18.28;90.87;98603.67;1634019;86;21071;-78
2021/06/22 02:25:55;;;;;;;16.23;6.65;;;;;;;18.25;89.86;98595.52;1644138;86;21086;-80
2021/06/22 02:28:22;;;;;;;12.50;6.40;;;;;;;18.25;90.95;98599.45;1641526;86;21003;-79
2021/06/22 02:30:51;;;;;;;15.03;6.33;;;;;;;18.24;91.13;98604.36;1644916;85;21527;-79
2021/06/22 02:33:18;;;;;;;12.85;6.53;;;;;;;18.24;89.95;98615.34;1655014;86;21059;-79
2021/06/22 02:35:45;;;;;;;16.27;6.37;;;;;;;18.24;90.11;98620.59;1629486;86;21104;-79
2021/06/22 02:38:13;;;;;;;12.60;6.60;;;;;;;18.26;89.58;98618.71;1653767;86;22003;-79
2021/06/22 02:40:42;;;;;;;10.10;5.80;;;;;;;18.27;90.03;98629.63;1623095;88;21079;-78
2021/06/22 02:43:10;;;;;;;15.30;6.47;;;;;;;18.30;90.14;98630.73;1652625;86;21000;-79
2021/06/22 02:45:37;;;;;;;17.98;6.45;;;;;;;18.27;90.26;98630.94;1641807;86;20996;-78
2021/06/22 02:48:09;;;;;;;16.73;6.10;;;;;;;18.22;90.68;98640.90;1659144;86;21059;-78
2021/06/22 02:50:40;;;;;;;10.45;6.33;;;;;;;18.19;93.07;98635.85;1632379;88;21043;-77
2021/06/22 02:53:09;;;;;;;17.20;6.70;;;;;;;18.13;94.07;98636.24;1651272;86;21012;-78
2021/06/22 02:55:37;;;;;;;18.65;6.22;;;;;;;18.14;92.95;98636.60;1640238;86;21031;-78
2021/06/22 02:58:08;;;;;;;11.68;6.10;;;;;;;18.17;93.35;98641.68;1647919;86;21020;-78
2021/06/22 03:00:35;;;;;;;12.58;6.65;;;;;;;18.18;94.85;98654.72;1668869;85;21085;-78
2021/06/22 03:03:04;;;;;;;15.75;6.53;;;;;;;18.20;93.87;98670.41;1664887;86;20988;-78
2021/06/22 03:05:32;;;;;;;10.72;5.85;;;;;;;18.22;93.52;98668.08;1667937;85;21056;-79
2021/06/22 03:08:00;;;;;;;17.02;6.95;;;;;;;18.29;92.79;98672.47;1680713;85;21079;-78
2021/06/22 03:10:27;;;;;;;14.47;6.00;;;;;;;18.36;92.43;98683.44;1669329;84;21063;-79
2021/06/22 03:12:54;;;;;;;15.65;5.60;;;;;;;18.43;92.05;98689.53;1652267;85;21042;-79
2021/06/22 03:15:31;;;;;;;12.23;5.22;;;;;;;18.44;91.66;98691.24;1666765;84;21050;-79
2021/06/22 03:17:58;;;;;;;15.35;5.58;;;;;;;18.49;90.74;98692.25;1679699;85;20984;-78
2021/06/22 03:20:26;;;;;;;12.70;5.80;;;;;;;18.51;90.87;98688.22;1674319;84;21118;-79
2021/06/22 03:22:54;;;;;;;13.75;5.17;;;;;;;18.55;90.85;98691.02;1695202;84;21054;-78
2021/06/22 03:25:22;;;;;;;12.70;5.30;;;;;;;18.60;90.71;98688.91;1684542;84;21038;-78
2021/06/22 03:27:50;;;;;;;11.15;5.17;;;;;;;18.64;91.08;98688.64;1690964;84;21019;-78
2021/06/22 03:30:32;;;;;;;14.95;6.12;;;;;;;18.67;90.61;98690.22;1681385;84;21047;-78
2021/06/22 03:32:59;;;;;;;9.65;5.58;;;;;;;18.66;90.55;98684.57;1693604;84;21062;-80
2021/06/22 03:35:29;;;;;;;18.50;6.60;;;;;;;18.69;89.86;98679.12;1681321;84;21946;-79
2021/06/22 03:37:56;;;;;;;17.37;6.30;;;;;;;18.69;89.87;98677.80;1691555;84;21039;-79
2021/06/22 03:40:23;;;;;;;16.25;6.25;;;;;;;18.74;89.60;98674.41;1670191;84;21516;-78
2021/06/22 03:42:50;;;;;;;11.08;6.03;;;;;;;18.76;89.43;98683.05;1689703;84;21006;-79
2021/06/22 03:45:18;;;;;;;10.18;5.67;;;;;;;18.80;89.01;98682.39;1651972;84;21034;-78
2021/06/22 03:47:46;;;;;;;14.10;5.75;;;;;;;18.82;89.13;98678.73;1687841;84;21078;-79
2021/06/22 03:50:14;;;;;;;17.23;6.70;;;;;;;18.88;88.98;98676.17;1676867;84;21608;-78
2021/06/22 03:52:42;;;;;;;15.50;5.42;;;;;;;18.94;89.13;98673.13;1688155;84;21434;-80
2021/06/22 03:55:26;;;;;;;16.95;5.85;;;;;;;19.02;89.10;98677.86;1682588;84;21131;-79
2021/06/22 03:57:58;;;;;;;15.03;6.83;;;;;;;19.10;89.04;98669.00;1679915;84;21011;-78
2021/06/22 04:00:29;;;;;;;19.33;6.77;;;;;;;19.13;88.76;98672.73;1677134;83;21594;-80
2021/06/22 04:02:59;;;;;;;18.00;7.15;;;;;;;19.17;88.13;98681.28;1662730;84;21093;-78
2021/06/22 04:05:30;;;;;;;13.65;6.50;;;;;;;19.12;88.06;98688.19;1690244;84;20999;-79
2021/06/22 04:08:00;;;;;;;22.30;7.20;;;;;;;19.08;87.95;98688.86;1699844;84;20967;-78
2021/06/22 04:10:28;;;;;;;15.90;6.37;;;;;;;19.08;87.93;98693.29;1677139;84;21063;-80
2021/06/22 04:12:55;;;;;;;16.93;7.42;;;;;;;19.11;87.36;98707.56;1699242;84;20955;-79
2021/06/22 04:15:23;;;;;;;12.20;6.03;;;;;;;19.13;88.03;98710.10;1654036;85;20983;-79
2021/06/22 04:17:50;;;;;;;18.95;7.05;;;;;;;19.09;88.03;98710.77;1677169;84;21064;-79
2021/06/22 04:20:18;;;;;;;21.68;7.10;;;;;;;19.06;88.81;98710.98;1672565;84;21028;-79
2021/06/22 04:22:45;;;;;;;18.02;6.42;;;;;;;19.02;89.87;98710.79;1641533;85;21562;-80
2021/06/22 04:25:13;;;;;;;18.30;7.62;;;;;;;19.10;89.06;98707.20;1665823;85;21083;-81
2021/06/22 04:27:40;;;;;;;13.93;6.47;;;;;;;19.15;88.42;98713.48;1671468;85;21052;-80
2021/06/22 04:30:09;;;;;;;16.25;6.53;;;;;;;19.16;89.48;98714.70;1665341;85;20972;-80
2021/06/22 04:32:36;;;;;;;20.50;7.55;;;;;;;19.24;88.60;98712.87;1670387;85;21135;-79
2021/06/22 04:35:03;;;;;;;17.57;11.45;;;;;;;19.34;88.75;98703.84;1664076;85;20964;-80
2021/06/22 04:37:30;;;;;;;23.85;14.68;;;;;;;19.43;88.72;98711.15;1651429;85;22047;-81
2021/06/22 04:39:56;;;;;;;29.60;14.60;;;;;;;19.56;88.56;98717.28;1653873;85;20968;-80
2021/06/22 04:42:23;;;;;;;14.98;8.43;;;;;;;19.71;88.61;98711.91;1668752;85;21008;-81
2021/06/22 04:44:49;;;;;;;19.32;7.92;;;;;;;19.88;88.30;98710.30;1661256;85;21437;-78
2021/06/22 04:47:16;;;;;;;16.87;7.20;;;;;;;20.03;88.15;98707.05;1637008;85;21016;-79
2021/06/22 04:49:42;;;;;;;18.07;6.28;;;;;;;20.19;87.69;98693.62;1662769;85;21031;-79
2021/06/22 04:52:11;;;;;;;14.58;6.75;;;;;;;20.35;87.23;98688.96;1620468;87;21140;-78
2021/06/22 04:54:39;;;;;;;12.88;6.90;;;;;;;20.53;86.66;98695.16;1664282;85;20980;-78
2021/06/22 04:57:07;;;;;;;17.82;7.20;;;;;;;20.61;84.72;98689.74;1651459;87;21099;-80
2021/06/22 04:59:35;;;;;;;16.48;7.58;;;;;;;20.76;85.41;98686.92;1637536;85;21139;-79
2021/06/22 05:02:05;;;;;;;16.52;7.30;;;;;;;20.88;83.66;98698.39;1612672;89;21067;-80
2021/06/22 05:04:34;;;;;;;17.05;7.87;;;;;;;21.01;84.15;98692.56;1653001;85;21019;-80
2021/06/22 05:07:01;;;;;;;21.95;7.78;;;;;;;21.16;83.77;98682.63;1651585;86;21543;-80
2021/06/22 05:09:27;;;;;;;15.03;7.78;;;;;;;21.25;82.64;98685.91;1664948;85;21012;-80
2021/06/22 05:11:54;;;;;;;15.23;7.80;;;;;;;21.36;82.75;98689.05;1664916;85;21071;-81
2021/06/22 05:14:21;;;;;;;15.30;7.35;;;;;;;21.52;82.36;98696.69;1665753;85;21134;-80
2021/06/22 05:16:50;;;;;;;17.90;8.55;;;;;;;21.48;81.49;98686.83;1662433;85;21539;-80
2021/06/22 05:19:17;;;;;;;13.72;7.90;;;;;;;21.53;82.22;98693.94;1666659;85;21035;-79
2021/06/22 05:21:44;;;;;;;18.82;7.62;;;;;;;21.69;81.87;98698.05;1669707;84;21031;-80
2021/06/22 05:24:13;;;;;;;13.40;6.85;;;;;;;21.82;81.16;98702.73;1657136;86;21126;-81
2021/06/22 05:26:40;;;;;;;13.25;7.22;;;;;;;21.88;81.14;98706.72;1659839;86;21035;-79
2021/06/22 05:29:06;;;;;;;12.63;7.15;;;;;;;22.05;81.23;98688.55;1686557;84;21094;-79
2021/06/22 05:31:35;;;;;;;14.75;7.85;;;;;;;22.25;80.46;98690.13;1693284;84;21618;-80
2021/06/22 05:34:01;;;;;;;12.40;7.20;;;;;;;22.45;80.50;98692.51;1675539;84;21191;-82
2021/06/22 05:36:28;;;;;;;18.50;7.60;;;;;;;22.62;79.61;98688.48;1641213;85;21159;-78
2021/06/22 05:38:55;;;;;;;17.73;7.58;;;;;;;22.80;80.07;98686.12;1669058;84;21055;-83
2021/06/22 05:41:23;;;;;;;13.95;6.87;;;;;;;22.92;78.69;98675.00;1670166;84;21087;-79
2021/06/22 05:43:50;;;;;;;13.62;6.35;;;;;;;22.99;78.17;98670.89;1651204;84;21114;-80
2021/06/22 05:46:16;;;;;;;15.30;7.12;;;;;;;23.11;76.27;98672.55;1668615;84;21027;-79
2021/06/22 05:48:43;;;;;;;16.27;6.87;;;;;;;23.16;75.48;98683.62;1690963;84;21059;-79
2021/06/22 05:51:09;;;;;;;13.20;7.12;;;;;;;23.29;75.71;98698.50;1674110;84;21102;-81
2021/06/22 05:53:36;;;;;;;15.18;7.65;;;;;;;23.37;74.98;98699.52;1666153;84;21154;-79
2021/06/22 05:56:03;;;;;;;13.58;6.47;;;;;;;23.31;75.31;98703.19;1650007;85;21946;-80
2021/06/22 05:58:30;;;;;;;19.30;7.55;;;;;;;23.22;74.32;98701.66;1677861;84;21089;-81
2021/06/22 06:00:57;;;;;;;11.12;6.10;;;;;;;23.25;74.83;98701.88;1646693;85;21563;-79
2021/06/22 06:03:24;;;;;;;13.32;6.67;;;;;;;23.32;74.41;98704.39;1669551;84;21010;-80
2021/06/22 06:05:50;;;;;;;10.18;5.97;;;;;;;23.43;74.79;98725.53;1671296;84;21031;-79
2021/06/22 06:08:17;;;;;;;18.35;6.65;;;;;;;23.50;75.18;98721.89;1674200;84;21070;-82
2021/06/22 06:10:44;;;;;;;17.07;7.05;;;;;;;23.50;74.07;98723.71;1665536;84;21090;-79
2021/06/22 06:13:10;;;;;;;11.38;6.05;;;;;;;23.48;73.77;98717.69;1641754;85;21591;-80
2021/06/22 06:15:37;;;;;;;11.50;6.40;;;;;;;23.46;73.86;98720.47;1668069;84;21074;-79
2021/06/22 06:18:05;;;;;;;10.93;6.05;;;;;;;23.52;73.21;98731.05;1672683;84;21103;-79
2021/06/22 06:20:31;;;;;;;18.70;6.72;;;;;;;23.53;73.81;98721.61;1639464;85;21066;-78
2021/06/22 06:22:58;;;;;;;12.75;6.28;;;;;;;23.57;73.92;98719.05;1679936;84;21035;-80
2021/06/22 06:25:25;;;;;;;14.73;5.87;;;;;;;23.67;73.43;98724.92;1662600;84;21525;-81
2021/06/22 06:28:01;;;;;;;10.05;5.83;;;;;;;23.74;73.30;98725.59;1662624;85;21059;-80
2021/06/22 06:30:28;;;;;;;13.25;5.85;;;;;;;23.79;72.94;98730.53;1669836;84;21382;-79
2021/06/22 06:32:55;;;;;;;11.33;6.15;;;;;;;23.83;72.26;98731.95;1678872;84;21047;-83
2021/06/22 06:35:23;;;;;;;12.82;6.55;;;;;;;23.91;73.38;98737.92;1664753;84;21271;-83
2021/06/22 06:37:49;;;;;;;12.65;5.60;;;;;;;23.95;73.39;98741.50;1647654;85;21012;-84
2021/06/22 06:40:17;;;;;;;9.93;5.10;;;;;;;24.01;72.89;98752.09;1677189;84;21045;-82
2021/06/22 06:42:45;;;;;;;11.05;5.87;;;;;;;24.17;73.36;98747.16;1680026;84;21054;-83
2021/06/22 06:45:13;;;;;;;14.18;5.62;;;;;;;24.26;73.31;98745.50;1665934;84;21015;-82
2021/06/22 06:47:41;;;;;;;9.98;5.95;;;;;;;24.32;72.70;98740.98;1670974;84;21101;-79
2021/06/22 06:50:09;;;;;;;17.57;6.08;;;;;;;24.42;71.99;98742.34;1679512;84;21096;-79
2021/06/22 06:52:36;;;;;;;13.18;5.97;;;;;;;24.36;71.07;98739.73;1670025;84;21090;-79
2021/06/22 06:55:03;;;;;;;13.55;5.95;;;;;;;24.45;70.92;98743.38;1673662;84;21094;-81
2021/06/22 06:57:30;;;;;;;16.50;5.85;;;;;;;24.48;70.93;98748.94;1655131;84;21129;-82
2021/06/22 06:59:57;;;;;;;22.65;8.33;;;;;;;24.53;70.38;98752.04;1671185;84;22219;-81
2021/06/22 07:02:23;;;;;;;21.50;7.70;;;;;;;24.61;70.24;98753.53;1668630;85;21035;-78
2021/06/22 07:04:50;;;;;;;15.15;5.90;;;;;;;24.71;70.61;98751.76;1661793;84;21043;-79
2021/06/22 07:07:17;;;;;;;11.75;5.67;;;;;;;24.84;68.08;98761.29;1636509;86;21090;-80
2021/06/22 07:09:44;;;;;;;16.67;5.95;;;;;;;24.86;69.13;98754.02;1665561;84;22357;-80
2021/06/22 07:12:11;;;;;;;16.85;6.30;;;;;;;24.94;69.33;98758.98;1663103;84;21576;-80
2021/06/22 07:14:37;;;;;;;17.55;6.85;;;;;;;24.99;67.79;98753.27;1651121;86;21074;-80
2021/06/22 07:17:04;;;;;;;14.58;6.53;;;;;;;25.01;68.83;98749.48;1641952;84;21012;-81
2021/06/22 07:19:31;;;;;;;16.27;6.40;;;;;;;25.09;69.27;98752.78;1675054;84;21039;-79
2021/06/22 07:21:58;;;;;;;22.32;6.92;;;;;;;25.18;69.19;98748.44;1665560;84;21054;-79
2021/06/22 07:24:25;;;;;;;10.70;5.15;;;;;;;25.29;68.12;98748.33;1680143;84;21015;-80
2021/06/22 07:26:51;;;;;;;12.93;5.12;;;;;;;25.41;68.81;98750.36;1651944;85;21066;-81
2021/06/22 07:29:19;;;;;;;11.57;5.58;;;;;;;25.49;66.32;98750.48;1650247;85;21115;-83
2021/06/22 07:31:46;;;;;;;29.60;17.50;;;;;;;25.53;67.57;98747.89;1676380;84;21042;-83
2021/06/22 07:34:13;;;;;;;13.40;7.03;;;;;;;25.64;67.56;98747.38;1675730;84;21043;-82
2021/06/22 07:36:39;;;;;;;15.75;5.92;;;;;;;25.72;66.12;98736.35;1685655;84;21071;-80
2021/06/22 07:39:06;;;;;;;20.10;6.58;;;;;;;25.79;65.03;98739.30;1676872;84;21040;-80
2021/06/22 07:41:32;;;;;;;13.25;6.35;;;;;;;25.78;62.11;98737.60;1685435;84;21007;-81
2021/06/22 07:43:59;;;;;;;14.80;5.80;;;;;;;25.85;64.57;98732.06;1680612;84;21077;-81
2021/06/22 07:46:25;;;;;;;11.35;5.50;;;;;;;25.80;63.17;98737.83;1673122;84;21039;-80
2021/06/22 07:48:52;;;;;;;13.15;5.83;;;;;;;25.79;63.91;98741.45;1669813;84;21128;-80
2021/06/22 07:51:18;;;;;;;20.25;5.80;;;;;;;25.77;63.17;98738.10;1675691;84;21043;-82
2021/06/22 07:53:45;;;;;;;13.55;5.67;;;;;;;25.82;63.06;98738.99;1673817;84;21015;-82
2021/06/22 07:56:12;;;;;;;12.55;5.72;;;;;;;25.73;61.90;98735.88;1679283;84;21006;-83
2021/06/22 07:58:38;;;;;;;12.40;5.65;;;;;;;25.72;61.71;98727.53;1675957;84;21088;-86
2021/06/22 08:01:05;;;;;;;10.08;6.15;;;;;;;25.78;62.66;98730.48;1672724;84;21083;-83
2021/06/22 08:03:32;;;;;;;13.90;5.87;;;;;;;25.79;62.80;98729.98;1615001;87;21066;-84
2021/06/22 08:05:58;;;;;;;15.32;6.17;;;;;;;25.85;62.98;98729.39;1679926;84;21533;-83
2021/06/22 08:08:25;;;;;;;15.03;6.03;;;;;;;25.92;62.89;98726.52;1675358;84;21533;-87
2021/06/22 08:10:55;;;;;;;16.27;6.03;;;;;;;26.03;62.65;98730.01;1670275;84;21177;-83
2021/06/22 08:13:24;;;;;;;11.70;6.00;;;;;;;26.10;62.83;98724.42;1676925;84;21058;-84
2021/06/22 08:15:52;;;;;;;16.02;6.58;;;;;;;26.05;61.90;98722.20;1673536;84;20987;-86
2021/06/22 08:18:19;;;;;;;12.75;5.50;;;;;;;26.19;62.30;98726.22;1672096;84;21129;-83
2021/06/22 08:20:45;;;;;;;17.67;6.05;;;;;;;26.17;59.14;98725.03;1678265;84;21038;-81
2021/06/22 08:23:13;;;;;;;15.95;6.33;;;;;;;26.27;61.60;98720.99;1646879;85;21076;-83
2021/06/22 08:25:40;;;;;;;16.82;6.67;;;;;;;26.41;61.84;98720.16;1644391;85;21039;-79
2021/06/22 08:28:07;;;;;;;16.15;5.80;;;;;;;26.51;60.99;98721.77;1645085;85;21001;-85
2021/06/22 08:30:35;;;;;;;18.65;7.05;;;;;;;26.51;61.04;98724.94;1646370;85;21027;-86
2021/06/22 08:36:13;;;;;;;18.70;6.35;;;;;;;26.53;61.69;98712.30;1686997;82;21086;31
2021/06/22 08:38:41;;;;;;;13.88;5.42;;;;;;;26.63;61.16;98709.11;1694769;85;21389;-89
2021/06/22 08:41:09;;;;;;;12.53;5.20;;;;;;;26.75;60.15;98709.73;1696457;83;21067;-88
2021/06/22 08:43:39;;;;;;;15.30;5.35;;;;;;;26.89;60.21;98719.03;1691039;85;21066;-88
2021/06/22 08:46:09;;;;;;;21.33;6.25;;;;;;;26.98;60.88;98710.13;1684706;80;21112;-90
2021/06/22 08:48:39;;;;;;;14.90;8.20;;;;;;;27.13;60.35;98707.24;1726123;81;21022;-90
2021/06/22 08:54:04;;;;;;;13.93;5.20;;;;;;;27.52;59.78;98712.27;1726399;81;21224;-88
2021/06/22 08:56:31;;;;;;;17.35;5.40;;;;;;;27.61;57.75;98704.30;1736677;83;20994;-89
2021/06/22 08:58:57;;;;;;;15.13;5.45;;;;;;;27.61;58.45;98709.64;1735884;83;20979;-90
2021/06/22 09:39:09;;;;;;;13.90;7.05;;;;;;;29.46;56.51;98726.66;1690784;81;21109;-88
2021/06/22 09:41:39;;;;;;;8.60;5.25;;;;;;;29.72;56.40;98732.36;1700667;83;21026;-91
2021/06/22 09:44:25;;;;;;;28.45;15.40;;;;;;;29.97;55.92;98728.30;1690489;81;21084;31
2021/06/22 09:47:00;;;;;;;19.62;5.72;;;;;;;30.12;54.17;98723.88;1740749;82;21150;-89
2021/06/22 09:52:30;;;;;;;10.75;5.58;;;;;;;30.25;53.56;98716.64;1673670;82;21080;-89
2021/06/22 09:54:57;;;;;;;9.58;6.12;;;;;;;30.42;52.95;98713.39;1684076;81;21182;-89
2021/06/22 09:57:27;;;;;;;11.40;5.17;;;;;;;30.60;52.76;98707.77;1673967;85;21087;-91
2021/06/22 10:00:05;;;;;;;7.40;4.80;;;;;;;30.70;51.65;98701.70;1649641;87;21117;-90
2021/06/22 10:02:50;;;;;;;11.85;4.67;;;;;;;30.67;47.81;98708.75;1672451;83;21079;-90
2021/06/22 10:05:18;;;;;;;11.68;4.70;;;;;;;30.60;49.51;98700.58;1653501;85;21075;-91
2021/06/22 10:10:38;;;;;;;13.03;4.22;;;;;;;30.66;48.64;98698.53;1700714;79;21308;31
2021/06/22 10:25:23;;;;;;;7.37;4.20;;;;;;;30.97;49.09;98690.13;1674198;82;21144;-85
2021/06/22 10:27:50;;;;;;;7.78;3.90;;;;;;;31.08;48.47;98688.38;1644905;82;21101;-89
2021/06/22 10:30:20;;;;;;;9.05;3.72;;;;;;;31.06;43.79;98688.55;1642267;87;21047;-89
2021/06/22 10:32:46;;;;;;;11.10;3.80;;;;;;;31.27;46.36;98677.11;1641702;85;21035;-91
2021/06/22 10:35:15;;;;;;;7.70;3.30;;;;;;;31.12;43.83;98669.03;1647445;84;21080;-91
2021/06/22 10:53:42;;;;;;;13.00;4.30;;;;;;;32.24;44.10;98657.47;1658693;82;21099;-94
2021/06/22 10:56:16;;;;;;;7.78;4.47;;;;;;;32.42;43.90;98660.26;1682879;81;21114;-93
2021/06/22 10:59:08;;;;;;;8.13;4.22;;;;;;;32.63;43.56;98654.94;1694014;81;21137;-85
2021/06/22 11:02:02;;;;;;;8.87;3.87;;;;;;;32.83;40.65;98659.17;1702873;82;21054;-93
2021/06/22 11:04:29;;;;;;;6.47;3.60;;;;;;;33.19;42.99;98654.76;1718884;83;20961;-90
2021/06/22 11:07:03;;;;;;;10.93;3.87;;;;;;;33.53;41.62;98658.53;1700423;80;21086;-91
2021/06/22 11:09:30;;;;;;;10.60;4.37;;;;;;;33.70;41.97;98660.41;1700375;82;21066;-92
2021/06/22 11:12:21;;;;;;;13.38;4.70;;;;;;;33.75;41.08;98659.32;1700217;81;21296;-85
2021/06/22 11:15:08;;;;;;;11.45;3.72;;;;;;;33.75;39.56;98656.09;1673390;83;21115;-92
2021/06/22 11:17:46;;;;;;;8.58;3.80;;;;;;;33.57;35.14;98647.67;1702436;81;21065;-87
2021/06/22 11:20:15;;;;;;;14.15;4.50;;;;;;;33.39;38.15;98651.69;1718764;83;21042;-90
2021/06/22 11:23:10;;;;;;;13.53;5.37;;;;;;;33.29;36.87;98653.91;1717959;82;21009;-91
2021/06/22 11:26:04;;;;;;;7.75;3.60;;;;;;;33.15;34.56;98658.84;1717543;81;21080;-91
2021/06/22 11:29:00;;;;;;;10.40;4.12;;;;;;;33.05;37.69;98661.34;1705915;83;21034;-91
2021/06/22 11:31:52;;;;;;;7.47;3.27;;;;;;;32.89;37.31;98662.96;1675952;83;21142;-90
2021/06/22 11:34:23;;;;;;;7.62;3.85;;;;;;;32.81;38.07;98667.09;1692849;82;23024;-89
2021/06/22 11:36:54;;;;;;;9.00;5.47;;;;;;;32.69;38.65;98668.98;1701238;82;21021;-91
2021/06/22 11:39:30;;;;;;;6.72;3.02;;;;;;;32.61;38.79;98677.17;1708761;84;21063;-91
2021/06/22 11:42:15;;;;;;;4.92;2.95;;;;;;;32.41;37.38;98668.85;1732515;82;20977;-86
2021/06/22 11:44:57;;;;;;;6.92;2.90;;;;;;;32.21;35.71;98656.52;1743668;82;21080;-91
2021/06/22 11:47:36;;;;;;;10.40;5.25;;;;;;;32.12;37.10;98657.63;1716004;80;21117;-89
2021/06/22 11:50:14;;;;;;;11.80;4.60;;;;;;;31.95;37.97;98655.61;1708974;83;21109;-89
2021/06/22 11:52:45;;;;;;;10.68;4.12;;;;;;;31.85;38.39;98657.27;1708850;80;21060;-92
2021/06/22 11:55:18;;;;;;;12.82;3.70;;;;;;;31.71;38.89;98651.36;1702006;81;21278;-91
2021/06/22 11:57:56;;;;;;;8.43;3.77;;;;;;;31.61;39.52;98648.12;1717436;81;21169;-91
2021/06/22 12:00:38;;;;;;;9.90;3.85;;;;;;;31.48;40.03;98654.14;1735876;81;21120;-91
2021/06/22 12:03:07;;;;;;;6.70;3.62;;;;;;;31.31;40.71;98651.56;1698034;81;21290;-91
2021/06/22 12:05:37;;;;;;;16.87;4.25;;;;;;;31.20;41.15;98636.43;1651736;84;21046;-91
2021/06/22 12:08:08;;;;;;;9.95;3.58;;;;;;;31.08;41.69;98632.83;1712824;81;21014;-90
2021/06/22 12:13:40;;;;;;;36.42;9.55;;;;;;;30.86;42.26;98604.15;1747291;79;21093;-91
2021/06/22 12:16:33;;;;;;;11.85;5.28;;;;;;;30.73;42.68;98602.88;1756460;80;21992;-90
2021/06/22 12:19:04;;;;;;;14.40;4.35;;;;;;;30.64;42.88;98616.05;1737760;80;21053;-91
2021/06/22 12:21:39;;;;;;;9.78;3.70;;;;;;;30.63;42.80;98628.30;1663010;82;21142;-90
2021/06/22 12:24:10;;;;;;;5.42;3.58;;;;;;;30.61;43.32;98625.78;1659783;86;21052;-89
2021/06/22 12:26:40;;;;;;;843.40;106.58;;;;;;;30.60;43.86;98635.34;1657971;86;21024;-89
2021/06/22 12:29:26;;;;;;;12.50;4.90;;;;;;;30.59;44.13;98634.52;1643356;83;21093;-89
2021/06/22 12:32:10;;;;;;;6.28;3.67;;;;;;;30.59;45.03;98634.52;1650535;83;21008;-89
2021/06/22 12:40:53;;;;;;;9.43;4.33;;;;;;;30.60;44.59;98632.18;1710321;81;21122;-86
2021/06/22 12:43:41;;;;;;;15.10;4.50;;;;;;;30.61;44.83;98626.30;1641837;84;21146;-90
2021/06/22 12:46:09;;;;;;;16.40;4.70;;;;;;;30.63;45.39;98629.12;1670118;84;21113;-84
2021/06/22 12:51:50;;;;;;;10.85;3.70;;;;;;;30.62;45.06;98634.17;1663163;81;21095;-87
2021/06/22 12:54:17;;;;;;;10.75;5.20;;;;;;;30.57;44.34;98637.88;1652401;82;21143;-89
2021/06/22 12:56:55;;;;;;;8.05;4.25;;;;;;;30.54;44.03;98642.28;1675711;86;21050;-91
2021/06/22 12:59:29;;;;;;;10.35;4.15;;;;;;;30.39;44.38;98641.36;1675961;83;21169;-88
2021/06/22 13:02:07;;;;;;;19.65;4.75;;;;;;;30.21;46.00;98641.59;1671320;84;21026;-87
2021/06/22 13:04:49;;;;;;;7.37;4.58;;;;;;;30.04;47.35;98639.00;1669131;86;21023;-90
2021/06/22 13:07:23;;;;;;;10.60;4.50;;;;;;;29.94;48.24;98634.33;1676412;84;21165;-87
2021/06/22 13:09:56;;;;;;;7.47;4.55;;;;;;;29.90;48.08;98629.84;1674803;86;21134;-90